SAS7223 EKCH-LEIB
Flight info
| Callsign | SAS7223 |
|---|---|
| Flight time | N/A |
| Altitude | 38000 |
| Route | NEXEN T503 MICOS DCT BOMBI DCT GIGET DCT ABUKA DCT KRH DCT NATOR DCT LUTIX DCT BENOT DCT NEMOS DCT GEVEA DCT INCUS DCT BALSI DCT RETNO DCT TUPOX DCT MTG DCT DIVKO DCT VATIR N852 PIVUS Z237 SULID DCT DIMIB DCT POS |
| Aircraft | A20N/M-SDE3FGIJ1RWXY/ALB1 |
Departure
| Time | 2026-05-05 15:00 |
|---|---|
| Airport | Copenhagen Kastrup Airport (EKCH) |
Arrival
| Time | N/A |
|---|---|
| Airport | Ibiza Airport (LEIB) |
| Time | Latitude | Longitude | Altitude | Speed | Heading |
|---|---|---|---|---|---|
| 2026-05-05 14:22 | 55.62578 | 12.64564 | 22 ft | 0 kts | 344° |
| 2026-05-05 14:45 | 55.62572 | 12.64567 | 21 ft | 4 kts | 342° |
| 2026-05-05 14:45 | 55.62548 | 12.64586 | 20 ft | 4 kts | 323° |
| 2026-05-05 14:46 | 55.62530 | 12.64619 | 21 ft | 4 kts | 290° |
| 2026-05-05 14:46 | 55.62528 | 12.64649 | 22 ft | 4 kts | 206° |
| 2026-05-05 14:46 | 55.62532 | 12.64653 | 25 ft | 1 kts | 180° |
| 2026-05-05 14:50 | 55.62530 | 12.64653 | 22 ft | 1 kts | 180° |
| 2026-05-05 14:50 | 55.62518 | 12.64653 | 21 ft | 3 kts | 180° |
| 2026-05-05 14:51 | 55.62480 | 12.64661 | 20 ft | 9 kts | 169° |
| 2026-05-05 14:51 | 55.62391 | 12.64675 | 20 ft | 17 kts | 179° |
| 2026-05-05 14:51 | 55.62302 | 12.64755 | 21 ft | 13 kts | 126° |
| 2026-05-05 14:51 | 55.62230 | 12.64785 | 20 ft | 11 kts | 190° |
| 2026-05-05 14:52 | 55.62169 | 12.64726 | 21 ft | 9 kts | 213° |
| 2026-05-05 14:52 | 55.62118 | 12.64667 | 22 ft | 9 kts | 213° |
| 2026-05-05 14:52 | 55.62061 | 12.64601 | 21 ft | 10 kts | 213° |
| 2026-05-05 14:52 | 55.62001 | 12.64534 | 20 ft | 10 kts | 210° |
| 2026-05-05 14:53 | 55.61917 | 12.64504 | 20 ft | 15 kts | 180° |
| 2026-05-05 14:53 | 55.61802 | 12.64540 | 20 ft | 19 kts | 167° |
| 2026-05-05 14:53 | 55.61674 | 12.64563 | 20 ft | 18 kts | 197° |
| 2026-05-05 14:53 | 55.61573 | 12.64451 | 20 ft | 17 kts | 213° |
| 2026-05-05 14:54 | 55.61478 | 12.64340 | 22 ft | 16 kts | 213° |
| 2026-05-05 14:54 | 55.61385 | 12.64233 | 21 ft | 16 kts | 213° |
| 2026-05-05 14:54 | 55.61289 | 12.64123 | 22 ft | 19 kts | 213° |
| 2026-05-05 14:54 | 55.61171 | 12.63986 | 22 ft | 20 kts | 212° |
| 2026-05-05 14:55 | 55.61055 | 12.63853 | 20 ft | 20 kts | 213° |
| 2026-05-05 14:55 | 55.60926 | 12.63705 | 20 ft | 24 kts | 213° |
| 2026-05-05 14:55 | 55.60781 | 12.63538 | 20 ft | 25 kts | 213° |
| 2026-05-05 14:55 | 55.60640 | 12.63372 | 20 ft | 24 kts | 218° |
| 2026-05-05 14:56 | 55.60516 | 12.63180 | 20 ft | 23 kts | 221° |
| 2026-05-05 14:56 | 55.60437 | 12.63113 | 20 ft | 11 kts | 170° |
| 2026-05-05 14:56 | 55.60394 | 12.63161 | 20 ft | 3 kts | 130° |
| 2026-05-05 14:56 | 55.60389 | 12.63173 | 20 ft | 0 kts | 130° |
| 2026-05-05 14:57 | 55.60384 | 12.63183 | 20 ft | 5 kts | 130° |
| 2026-05-05 14:57 | 55.60339 | 12.63279 | 22 ft | 12 kts | 130° |
| 2026-05-05 14:57 | 55.60343 | 12.63357 | 25 ft | 5 kts | 43° |
| 2026-05-05 14:57 | 55.60350 | 12.63367 | 23 ft | 0 kts | 41° |
| 2026-05-05 14:58 | 55.60352 | 12.63370 | 23 ft | 1 kts | 41° |
| 2026-05-05 14:58 | 55.60354 | 12.63373 | 23 ft | 0 kts | 41° |
| 2026-05-05 14:59 | 55.60356 | 12.63376 | 24 ft | 4 kts | 41° |
| 2026-05-05 14:59 | 55.60525 | 12.63635 | 21 ft | 66 kts | 41° |
| 2026-05-05 14:59 | 55.61034 | 12.64425 | 20 ft | 128 kts | 41° |
| 2026-05-05 14:59 | 55.61788 | 12.65633 | 248 ft | 154 kts | 39° |
| 2026-05-05 15:00 | 55.62625 | 12.66888 | 786 ft | 157 kts | 37° |
| 2026-05-05 15:00 | 55.63179 | 12.67696 | 1318 ft | 155 kts | 38° |
| 2026-05-05 15:00 | 55.64284 | 12.69424 | 2155 ft | 170 kts | 39° |
| 2026-05-05 15:00 | 55.65242 | 12.70894 | 2526 ft | 192 kts | 37° |
| 2026-05-05 15:01 | 55.66300 | 12.72482 | 3034 ft | 204 kts | 37° |
| 2026-05-05 15:01 | 55.67423 | 12.74164 | 3528 ft | 219 kts | 37° |
| 2026-05-05 15:01 | 55.68605 | 12.75971 | 4110 ft | 231 kts | 41° |
| 2026-05-05 15:01 | 55.69603 | 12.78373 | 4607 ft | 254 kts | 63° |
| 2026-05-05 15:02 | 55.69912 | 12.81522 | 5364 ft | 270 kts | 94° |
| 2026-05-05 15:02 | 55.69172 | 12.84618 | 6175 ft | 282 kts | 129° |
| 2026-05-05 15:02 | 55.67565 | 12.86529 | 7073 ft | 281 kts | 166° |
| 2026-05-05 15:02 | 55.65659 | 12.86589 | 7985 ft | 274 kts | 199° |
| 2026-05-05 15:03 | 55.63893 | 12.85395 | 9010 ft | 271 kts | 207° |
| 2026-05-05 15:03 | 55.62163 | 12.84057 | 9978 ft | 272 kts | 207° |
| 2026-05-05 15:03 | 55.60366 | 12.82755 | 10547 ft | 289 kts | 205° |
| 2026-05-05 15:03 | 55.58410 | 12.81442 | 10908 ft | 312 kts | 204° |
| 2026-05-05 15:04 | 55.56296 | 12.80098 | 11274 ft | 333 kts | 203° |
| 2026-05-05 15:04 | 55.54111 | 12.78674 | 11855 ft | 343 kts | 207° |
| 2026-05-05 15:04 | 55.52037 | 12.76595 | 12672 ft | 343 kts | 219° |
| 2026-05-05 15:04 | 55.50179 | 12.73944 | 13579 ft | 345 kts | 224° |
| 2026-05-05 15:05 | 55.46650 | 12.68366 | 14343 ft | 330 kts | 224° |
| 2026-05-05 15:05 | 55.44919 | 12.65703 | 13485 ft | 336 kts | 224° |
| 2026-05-05 15:05 | 55.43091 | 12.62955 | 12112 ft | 355 kts | 223° |
| 2026-05-05 15:06 | 55.41161 | 12.60113 | 10735 ft | 365 kts | 222° |
| 2026-05-05 15:06 | 55.39347 | 12.57017 | 9212 ft | 364 kts | 238° |
| 2026-05-05 15:06 | 55.38572 | 12.52917 | 8077 ft | 350 kts | 267° |
| 2026-05-05 15:06 | 55.38991 | 12.48814 | 7098 ft | 338 kts | 295° |
| 2026-05-05 15:07 | 55.40408 | 12.45701 | 6667 ft | 322 kts | 323° |
| 2026-05-05 15:07 | 55.42471 | 12.44120 | 6525 ft | 335 kts | 348° |
| 2026-05-05 15:07 | 55.44791 | 12.43620 | 6384 ft | 331 kts | 351° |
| 2026-05-05 15:07 | 55.47036 | 12.43184 | 5743 ft | 317 kts | 0° |
| 2026-05-05 15:08 | 55.49067 | 12.44053 | 5525 ft | 290 kts | 26° |
| 2026-05-05 15:08 | 55.50629 | 12.46071 | 5207 ft | 271 kts | 38° |
| 2026-05-05 15:08 | 55.51989 | 12.48393 | 4426 ft | 271 kts | 47° |
| 2026-05-05 15:08 | 55.53205 | 12.50888 | 3748 ft | 266 kts | 47° |
| 2026-05-05 15:09 | 55.54385 | 12.53323 | 3203 ft | 253 kts | 47° |
| 2026-05-05 15:09 | 55.55633 | 12.55087 | 3047 ft | 206 kts | 13° |
| 2026-05-05 15:09 | 55.56877 | 12.54763 | 2950 ft | 171 kts | 320° |
| 2026-05-05 15:09 | 55.57258 | 12.52956 | 2675 ft | 165 kts | 260° |
| 2026-05-05 15:10 | 55.56504 | 12.51508 | 2276 ft | 168 kts | 195° |
| 2026-05-05 15:10 | 55.55467 | 12.51994 | 1908 ft | 154 kts | 127° |
| 2026-05-05 15:10 | 55.55269 | 12.53626 | 1525 ft | 133 kts | 62° |
| 2026-05-05 15:10 | 55.55738 | 12.54961 | 1187 ft | 125 kts | 48° |
| 2026-05-05 15:11 | 55.56346 | 12.56037 | 900 ft | 123 kts | 38° |
| 2026-05-05 15:11 | 55.57029 | 12.56990 | 750 ft | 128 kts | 37° |
| 2026-05-05 15:11 | 55.57687 | 12.58035 | 512 ft | 127 kts | 38° |
| 2026-05-05 15:11 | 55.58360 | 12.59084 | 309 ft | 130 kts | 38° |
| 2026-05-05 15:12 | 55.59046 | 12.60107 | 108 ft | 127 kts | 39° |
| 2026-05-05 15:12 | 55.59704 | 12.61104 | 28 ft | 118 kts | 38° |
| 2026-05-05 15:12 | 55.60263 | 12.61967 | 22 ft | 96 kts | 40° |
| 2026-05-05 15:12 | 55.60718 | 12.62670 | 27 ft | 79 kts | 41° |
| 2026-05-05 15:13 | 55.61098 | 12.63259 | 26 ft | 64 kts | 41° |
| 2026-05-05 15:13 | 55.61381 | 12.63700 | 23 ft | 42 kts | 42° |
| 2026-05-05 15:13 | 55.61553 | 12.63967 | 22 ft | 30 kts | 40° |
| 2026-05-05 15:13 | 55.61734 | 12.64084 | 21 ft | 30 kts | 356° |
| 2026-05-05 15:14 | 55.61899 | 12.64096 | 20 ft | 20 kts | 25° |
| 2026-05-05 15:14 | 55.62029 | 12.64204 | 20 ft | 21 kts | 25° |
| 2026-05-05 15:14 | 55.62138 | 12.64297 | 20 ft | 11 kts | 24° |
| 2026-05-05 15:14 | 55.62154 | 12.64310 | 19 ft | 0 kts | 25° |
| 2026-05-05 15:15 | 55.62162 | 12.64317 | 19 ft | 2 kts | 25° |
| 2026-05-05 15:15 | 55.62192 | 12.64342 | 18 ft | 7 kts | 25° |
| 2026-05-05 15:15 | 55.62256 | 12.64387 | 19 ft | 15 kts | 15° |
| 2026-05-05 15:15 | 55.62359 | 12.64437 | 20 ft | 16 kts | 15° |
| 2026-05-05 15:16 | 55.62381 | 12.64537 | 20 ft | 9 kts | 115° |
| 2026-05-05 15:16 | 55.62383 | 12.64667 | 22 ft | 12 kts | 31° |
| 2026-05-05 15:16 | 55.62451 | 12.64631 | 20 ft | 9 kts | 339° |
| 2026-05-05 15:16 | 55.62506 | 12.64601 | 22 ft | 7 kts | 352° |
| 2026-05-05 15:17 | 55.62553 | 12.64577 | 20 ft | 7 kts | 344° |
| 2026-05-05 15:17 | 55.62578 | 12.64565 | 22 ft | 0 kts | 344° |
| 2026-05-05 15:17 | 55.62578 | 12.64564 | 22 ft | 0 kts | 344° |